Terminal Aerodrome Forecast
Issued by NWS Grand Junction, CO

Home | Current Version | Previous Version | Text Only | Print | Product List | Glossary On
Versions: 1 2 3 4 5 6 7 8 9 10 11 12 13 14 15 16 17 18 19 20 21 22 23 24 25 26 27 28 29 30 31 32 33 34 35 36 37 38 39
000
FTUS45 KGJT 271131
TAFGJT
TAF
KGJT 271131Z 2712/2812 VRB03KT P6SM SCT060
     FM271200 12005KT P6SM VCFG FEW060
     FM271500 VRB04KT P6SM SCT250
     FM280000 05005KT P6SM BKN200
     FM280600 10005KT P6SM BKN200=

USA.gov is the U.S. government's official web portal to all federal, state and local government web resources and services.